createdAt,value
2019-06-08T00:01:22.905Z,54.37
2019-06-08T00:03:52.706Z,53.40
2019-06-08T00:06:23.013Z,55.33
2019-06-08T00:08:52.945Z,53.00
2019-06-08T00:11:23.426Z,53.63
2019-06-08T00:13:53.371Z,52.97
2019-06-08T00:16:23.812Z,53.07
2019-06-08T00:18:53.733Z,53.13
2019-06-08T00:21:24.131Z,53.73
2019-06-08T00:23:57.849Z,51.30
2019-06-08T00:26:27.526Z,54.57
2019-06-08T00:28:57.844Z,53.27
2019-06-08T00:31:27.588Z,53.93
2019-06-08T00:33:57.273Z,55.43
2019-06-08T00:36:26.956Z,54.87
2019-06-08T00:38:56.738Z,52.97
2019-06-08T00:41:26.709Z,51.70
2019-06-08T00:43:56.794Z,52.47
2019-06-08T00:46:26.495Z,52.73
2019-06-08T00:48:56.303Z,52.00
2019-06-08T00:51:26.080Z,53.20
2019-06-08T00:53:55.727Z,53.67
2019-06-08T00:56:26.638Z,53.67
2019-06-08T00:58:56.343Z,54.10
2019-06-08T01:01:28.255Z,54.57
2019-06-08T01:03:58.067Z,55.87
2019-06-08T01:06:29.942Z,54.27
2019-06-08T01:08:59.599Z,52.07
2019-06-08T01:11:29.539Z,52.87
2019-06-08T01:14:00.707Z,53.33
2019-06-08T01:16:30.526Z,55.50
2019-06-08T01:19:00.215Z,55.03
2019-06-08T01:21:30.244Z,52.80
2019-06-08T01:23:59.945Z,54.67
2019-06-08T01:26:30.145Z,53.60
2019-06-08T01:29:01.712Z,52.53
2019-06-08T01:31:34.314Z,55.10
2019-06-08T01:34:04.887Z,52.07
2019-06-08T01:36:34.606Z,51.57
2019-06-08T01:39:07.725Z,54.27
2019-06-08T01:41:37.440Z,54.30
2019-06-08T01:44:07.108Z,55.23
2019-06-08T01:46:36.809Z,51.13
2019-06-08T01:49:07.268Z,52.33
2019-06-08T01:51:38.398Z,52.90
2019-06-08T01:54:08.243Z,51.57
2019-06-08T01:56:38.418Z,53.17
2019-06-08T01:59:08.154Z,53.33
2019-06-08T02:01:37.912Z,51.87
2019-06-08T02:04:07.574Z,51.17
2019-06-08T02:06:37.262Z,52.07
2019-06-08T02:09:09.880Z,52.97
2019-06-08T02:11:40.031Z,54.20
2019-06-08T02:14:09.702Z,52.33
2019-06-08T02:16:39.387Z,52.27
2019-06-08T02:19:09.058Z,51.87
2019-06-08T02:21:39.110Z,52.63
2019-06-08T02:24:09.121Z,52.60
2019-06-08T02:26:39.708Z,53.27
2019-06-08T02:29:09.662Z,52.10
2019-06-08T02:31:42.100Z,51.33
2019-06-08T02:34:11.888Z,52.50
2019-06-08T02:36:41.564Z,51.33
2019-06-08T02:39:11.276Z,52.97
2019-06-08T02:41:41.327Z,53.10
2019-06-08T02:44:10.981Z,54.20
2019-06-08T02:46:40.792Z,52.87
2019-06-08T02:49:10.442Z,52.93
2019-06-08T02:51:41.149Z,52.80
2019-06-08T02:54:13.490Z,54.40
2019-06-08T02:56:44.590Z,52.27
2019-06-08T02:59:18.679Z,51.67
2019-06-08T03:01:51.111Z,52.10
2019-06-08T03:04:22.433Z,53.87
2019-06-08T03:06:53.791Z,53.10
2019-06-08T03:09:27.545Z,54.07
2019-06-08T03:11:57.230Z,54.60
2019-06-08T03:14:28.926Z,53.27
2019-06-08T03:17:00.323Z,53.07
2019-06-08T03:19:31.272Z,54.27
2019-06-08T03:22:01.564Z,53.23
2019-06-08T03:24:32.483Z,54.20
2019-06-08T03:27:04.166Z,53.53
2019-06-08T03:29:34.963Z,54.10
2019-06-08T03:32:05.520Z,54.63
2019-06-08T03:34:39.777Z,52.80
2019-06-08T03:37:06.707Z,53.20
2019-06-08T03:39:37.003Z,52.40
2019-06-08T03:42:07.244Z,54.13
2019-06-08T03:44:38.434Z,53.03
2019-06-08T03:47:08.458Z,55.07
2019-06-08T03:49:48.774Z,56.23
2019-06-08T03:52:12.430Z,51.63
2019-06-08T03:54:43.055Z,51.30
2019-06-08T03:57:13.787Z,51.90
2019-06-08T03:59:45.608Z,52.67
2019-06-08T04:02:14.857Z,51.23
2019-06-08T04:04:46.274Z,51.73
2019-06-08T04:07:16.006Z,51.47
2019-06-08T04:09:46.008Z,51.40
2019-06-08T04:12:17.326Z,53.70
2019-06-08T04:14:50.089Z,52.10
2019-06-08T04:17:19.797Z,50.50
2019-06-08T04:20:06.321Z,49.57
2019-06-08T04:22:20.975Z,50.83
2019-06-08T04:24:50.766Z,50.60
2019-06-08T04:27:20.504Z,50.07
2019-06-08T04:29:50.290Z,52.43
2019-06-08T04:32:20.039Z,50.13
2019-06-08T04:34:50.069Z,50.37
2019-06-08T04:37:19.899Z,50.40
2019-06-08T04:39:50.911Z,50.63
2019-06-08T04:42:21.149Z,50.33
2019-06-08T04:44:50.835Z,50.03
2019-06-08T04:47:20.507Z,51.53
2019-06-08T04:49:50.370Z,49.47
2019-06-08T04:52:20.023Z,50.47
2019-06-08T04:54:49.958Z,51.33
2019-06-08T04:57:19.780Z,52.03
2019-06-08T04:59:50.459Z,51.00
2019-06-08T05:02:20.285Z,50.53
2019-06-08T05:04:50.088Z,49.90
2019-06-08T05:07:19.965Z,50.53
2019-06-08T05:09:49.639Z,50.17
2019-06-08T05:12:19.402Z,50.57
2019-06-08T05:14:49.345Z,50.77
2019-06-08T05:17:19.143Z,51.40
2019-06-08T05:19:50.559Z,51.53
2019-06-08T05:22:20.233Z,49.87
2019-06-08T05:24:50.181Z,53.17
2019-06-08T05:27:20.183Z,51.50
2019-06-08T05:29:50.186Z,49.90
2019-06-08T05:32:19.877Z,49.17
2019-06-08T05:34:49.782Z,49.83
2019-06-08T05:37:19.724Z,51.50
2019-06-08T05:39:49.956Z,51.70
2019-06-08T05:42:19.839Z,50.67
2019-06-08T05:44:50.272Z,49.60
2019-06-08T05:47:20.575Z,48.87
2019-06-08T05:49:50.255Z,50.30
2019-06-08T05:52:19.994Z,50.80
2019-06-08T05:54:51.141Z,51.23
2019-06-08T05:57:20.842Z,50.20
2019-06-08T05:59:50.538Z,50.30
2019-06-08T06:02:20.240Z,49.77
2019-06-08T06:04:52.257Z,50.53
2019-06-08T06:07:21.436Z,50.10
2019-06-08T06:09:51.281Z,52.70
2019-06-08T06:12:21.282Z,50.70
2019-06-08T06:14:51.295Z,50.50
2019-06-08T06:17:21.208Z,49.83
2019-06-08T06:19:52.839Z,50.27
2019-06-08T06:22:23.515Z,50.07
2019-06-08T06:24:53.314Z,56.33
2019-06-08T06:27:23.276Z,50.23
2019-06-08T06:29:54.351Z,50.50
2019-06-08T06:32:24.064Z,48.83
2019-06-08T06:34:53.796Z,49.60
2019-06-08T06:37:23.630Z,49.30
2019-06-08T06:39:53.303Z,51.17
2019-06-08T06:42:24.961Z,51.27
2019-06-08T06:44:54.739Z,48.87
2019-06-08T06:47:24.416Z,49.43
2019-06-08T06:49:54.196Z,50.13
2019-06-08T06:52:23.874Z,52.07
2019-06-08T06:54:53.637Z,48.83
2019-06-08T06:57:23.322Z,49.20
2019-06-08T06:59:54.186Z,50.73
2019-06-08T07:02:24.242Z,54.03
2019-06-08T07:04:54.390Z,51.00
2019-06-08T07:07:24.264Z,50.97
2019-06-08T07:09:54.885Z,48.97
2019-06-08T07:12:24.993Z,51.00
2019-06-08T07:14:55.514Z,49.17
2019-06-08T07:17:25.470Z,49.17
2019-06-08T07:19:55.159Z,50.13
2019-06-08T07:22:25.335Z,50.43
2019-06-08T07:24:55.134Z,51.27
2019-06-08T07:27:24.820Z,50.00
2019-06-08T07:29:54.785Z,49.73
2019-06-08T07:32:24.843Z,48.70
2019-06-08T07:34:55.327Z,50.47
2019-06-08T07:37:25.391Z,50.23
2019-06-08T07:39:56.181Z,51.43
2019-06-08T07:42:26.023Z,51.33
2019-06-08T07:44:55.942Z,47.93
2019-06-08T07:47:25.609Z,48.83
2019-06-08T07:49:55.671Z,51.17
2019-06-08T07:52:25.575Z,49.97
2019-06-08T07:54:56.552Z,50.23
2019-06-08T07:57:26.617Z,51.20
2019-06-08T07:59:56.464Z,49.70
2019-06-08T08:02:26.480Z,50.43
2019-06-08T08:04:56.727Z,51.30
2019-06-08T08:07:26.565Z,49.40
2019-06-08T08:09:56.971Z,50.70
2019-06-08T08:12:27.014Z,50.53
2019-06-08T08:14:58.085Z,50.37
2019-06-08T08:17:28.166Z,53.00
2019-06-08T08:19:59.309Z,50.20
2019-06-08T08:22:29.875Z,50.90
2019-06-08T08:25:03.268Z,51.27
2019-06-08T08:27:31.233Z,50.73
2019-06-08T08:30:02.116Z,51.77
2019-06-08T08:32:31.974Z,51.57
2019-06-08T08:35:03.055Z,52.53
2019-06-08T08:37:37.900Z,52.77
2019-06-08T08:40:09.550Z,50.47
2019-06-08T08:42:39.200Z,51.07
2019-06-08T08:45:09.685Z,51.80
2019-06-08T08:47:39.378Z,52.07
2019-06-08T08:50:10.144Z,51.83
2019-06-08T08:52:40.846Z,52.13
2019-06-08T08:55:11.203Z,52.57
2019-06-08T08:57:41.573Z,51.47
2019-06-08T09:00:13.769Z,52.27
2019-06-08T09:02:43.450Z,51.43
2019-06-08T09:05:13.456Z,52.00
2019-06-08T09:07:43.142Z,52.00
2019-06-08T09:10:18.136Z,51.33
2019-06-08T09:12:48.615Z,51.63
2019-06-08T09:15:23.020Z,51.00
2019-06-08T09:17:53.931Z,50.83
2019-06-08T09:20:25.214Z,51.00
2019-06-08T09:23:03.064Z,51.30
2019-06-08T09:25:28.028Z,51.30
2019-06-08T09:28:02.866Z,49.53
2019-06-08T09:30:31.219Z,51.70
2019-06-08T09:33:02.506Z,51.30
2019-06-08T09:35:32.519Z,51.53
2019-06-08T09:38:04.581Z,52.30
2019-06-08T09:40:33.718Z,50.67
2019-06-08T09:43:09.175Z,51.37
2019-06-08T09:45:34.862Z,51.67
2019-06-08T09:48:06.453Z,51.80
2019-06-08T09:50:38.469Z,51.13
2019-06-08T09:53:23.272Z,53.27
2019-06-08T09:55:41.370Z,52.73
2019-06-08T09:58:11.776Z,51.27
2019-06-08T10:00:41.861Z,52.37
2019-06-08T10:03:13.115Z,52.37
2019-06-08T10:05:42.788Z,53.57
2019-06-08T10:08:13.661Z,60.00
2019-06-08T10:10:43.357Z,53.03
2019-06-08T10:13:13.354Z,53.20
2019-06-08T10:15:43.131Z,53.57
2019-06-08T10:18:12.817Z,54.23
2019-06-08T10:20:42.495Z,53.63
2019-06-08T10:23:28.114Z,52.70
2019-06-08T10:25:43.710Z,53.20
2019-06-08T10:28:19.147Z,54.87
2019-06-08T10:30:48.390Z,53.77
2019-06-08T10:33:18.567Z,55.97
2019-06-08T10:35:48.865Z,55.87
2019-06-08T10:38:19.567Z,58.20
2019-06-08T10:41:09.174Z,52.80
2019-06-08T10:43:34.831Z,55.90
2019-06-08T10:46:09.988Z,53.73
2019-06-08T10:48:37.924Z,53.80
2019-06-08T10:51:12.489Z,54.23
2019-06-08T10:53:49.161Z,53.87
2019-06-08T10:56:12.330Z,56.60
2019-06-08T10:58:44.270Z,54.60
2019-06-08T11:01:14.153Z,54.63
2019-06-08T11:03:43.923Z,54.83
2019-06-08T11:06:13.775Z,53.83
2019-06-08T11:08:43.713Z,54.13
2019-06-08T11:11:13.590Z,56.80
2019-06-08T11:13:43.224Z,54.27
2019-06-08T11:16:13.630Z,52.37
2019-06-08T11:18:43.861Z,54.53
2019-06-08T11:21:13.592Z,53.73
2019-06-08T11:24:04.677Z,53.73
2019-06-08T11:26:23.952Z,58.13
2019-06-08T11:28:51.286Z,51.17
2019-06-08T11:31:21.449Z,54.83
2019-06-08T11:33:51.207Z,54.07
2019-06-08T11:36:20.897Z,52.93
2019-06-08T11:38:50.552Z,54.93
2019-06-08T11:41:22.786Z,54.07
2019-06-08T11:43:51.758Z,53.37
2019-06-08T11:46:22.271Z,54.73
2019-06-08T11:48:52.203Z,56.20
2019-06-08T11:51:21.989Z,54.77
2019-06-08T11:53:52.499Z,54.13
2019-06-08T11:56:24.618Z,54.37
2019-06-08T11:58:57.820Z,54.43
2019-06-08T12:01:27.728Z,55.17
2019-06-08T12:03:58.010Z,53.80
2019-06-08T12:06:27.784Z,54.77
2019-06-08T12:09:00.142Z,54.97
2019-06-08T12:11:28.871Z,53.93
2019-06-08T12:13:58.619Z,55.27
2019-06-08T12:16:28.456Z,55.43
2019-06-08T12:18:58.735Z,56.23
2019-06-08T12:21:28.427Z,56.10
2019-06-08T12:23:58.111Z,57.20
2019-06-08T12:26:28.411Z,57.20
2019-06-08T12:29:01.267Z,55.63
2019-06-08T12:31:30.691Z,57.50
2019-06-08T12:34:00.696Z,58.67
2019-06-08T12:36:30.742Z,57.13
2019-06-08T12:39:02.326Z,57.50
2019-06-08T12:41:33.203Z,58.73
2019-06-08T12:44:02.903Z,56.27
2019-06-08T12:46:33.741Z,56.47
2019-06-08T12:49:03.470Z,58.43
2019-06-08T12:51:33.135Z,57.53
2019-06-08T12:54:02.821Z,56.03
2019-06-08T12:56:32.510Z,55.77
2019-06-08T12:59:02.177Z,56.37
2019-06-08T13:01:33.094Z,57.37
2019-06-08T13:04:02.713Z,58.23
2019-06-08T13:06:32.416Z,57.73
2019-06-08T13:09:02.083Z,55.53
2019-06-08T13:11:31.877Z,56.50
2019-06-08T13:14:02.156Z,55.83
2019-06-08T13:16:33.292Z,55.47
2019-06-08T13:19:03.000Z,56.20
2019-06-08T13:21:35.407Z,55.50
2019-06-08T13:24:04.115Z,57.03
2019-06-08T13:26:34.116Z,55.20
2019-06-08T13:29:03.705Z,56.50
2019-06-08T13:31:33.375Z,57.43
2019-06-08T13:34:03.081Z,56.77
2019-06-08T13:36:32.750Z,57.93
2019-06-08T13:39:02.503Z,55.23
2019-06-08T13:41:32.340Z,58.80
2019-06-08T13:44:02.077Z,58.87
2019-06-08T13:46:31.743Z,59.17
2019-06-08T13:49:01.465Z,55.93
2019-06-08T13:51:31.705Z,53.70
2019-06-08T13:54:01.452Z,56.73
2019-06-08T13:56:31.134Z,57.20
2019-06-08T13:59:00.620Z,55.50
2019-06-08T14:01:30.974Z,56.20
2019-06-08T14:04:01.188Z,57.23
2019-06-08T14:06:31.068Z,55.90
2019-06-08T14:09:01.044Z,57.80
2019-06-08T14:11:30.767Z,62.03
2019-06-08T14:14:01.993Z,58.40
2019-06-08T14:16:31.711Z,59.17
2019-06-08T14:19:01.533Z,60.27
2019-06-08T14:21:40.089Z,57.70
2019-06-08T14:24:02.766Z,61.73
2019-06-08T14:26:34.098Z,59.40
2019-06-08T14:29:03.759Z,58.43
2019-06-08T14:31:34.686Z,61.40
2019-06-08T14:34:04.379Z,58.60
2019-06-08T14:36:34.107Z,57.57
2019-06-08T14:39:10.396Z,58.43
2019-06-08T14:41:38.170Z,59.07
2019-06-08T14:44:08.323Z,60.33
2019-06-08T14:46:41.440Z,59.30
2019-06-08T14:49:09.996Z,58.57
2019-06-08T14:51:49.212Z,59.47
2019-06-08T14:54:25.088Z,59.90
2019-06-08T14:56:54.947Z,58.90
2019-06-08T14:59:27.837Z,59.20
2019-06-08T15:01:58.262Z,58.67
2019-06-08T15:04:34.136Z,57.37
2019-06-08T15:06:59.450Z,59.63
2019-06-08T15:09:29.892Z,60.60
2019-06-08T15:11:59.581Z,61.83
2019-06-08T15:14:34.628Z,60.00
2019-06-08T15:17:08.579Z,60.27
2019-06-08T15:19:38.248Z,58.90
2019-06-08T15:22:11.281Z,59.43
2019-06-08T15:24:40.562Z,60.27
2019-06-08T15:27:12.374Z,60.27
2019-06-08T15:29:42.158Z,58.00
2019-06-08T15:32:11.986Z,58.43
2019-06-08T15:34:41.680Z,58.33
2019-06-08T15:37:12.834Z,59.73
2019-06-08T15:39:42.520Z,58.90
2019-06-08T15:42:12.242Z,61.30
2019-06-08T15:44:41.998Z,59.50
2019-06-08T15:47:12.942Z,60.47
2019-06-08T15:49:42.627Z,58.73
2019-06-08T15:52:34.167Z,59.03
2019-06-08T15:55:04.764Z,57.53
2019-06-08T15:57:38.067Z,62.40
2019-06-08T16:00:10.349Z,60.47
2019-06-08T16:02:41.406Z,61.70
2019-06-08T16:05:11.987Z,58.93
2019-06-08T16:07:42.867Z,58.07
2019-06-08T16:10:13.787Z,59.37
2019-06-08T16:12:45.083Z,59.97
2019-06-08T16:15:15.247Z,58.80
2019-06-08T16:17:45.527Z,61.80
2019-06-08T16:20:16.516Z,57.27
2019-06-08T16:22:47.072Z,59.70
2019-06-08T16:25:17.260Z,59.67
2019-06-08T16:27:47.014Z,58.43
2019-06-08T16:30:18.149Z,59.33
2019-06-08T16:32:49.004Z,59.03
2019-06-08T16:35:19.207Z,61.07
2019-06-08T16:37:50.463Z,61.13
2019-06-08T16:40:21.425Z,61.43
2019-06-08T16:42:52.279Z,58.97
2019-06-08T16:45:23.045Z,59.73
2019-06-08T16:47:53.792Z,64.50
2019-06-08T16:50:25.028Z,62.07
2019-06-08T16:52:55.153Z,62.23
2019-06-08T16:55:27.715Z,63.07
2019-06-08T16:57:58.242Z,63.53
2019-06-08T17:00:31.143Z,63.67
2019-06-08T17:03:01.633Z,65.43
2019-06-08T17:05:33.194Z,67.70
2019-06-08T17:08:03.959Z,66.90
2019-06-08T17:10:34.864Z,65.00
2019-06-08T17:13:05.832Z,65.87
2019-06-08T17:15:38.318Z,65.50
2019-06-08T17:18:10.516Z,66.90
2019-06-08T17:21:03.495Z,65.83
2019-06-08T17:23:34.459Z,68.00
2019-06-08T17:26:04.602Z,65.33
2019-06-08T17:28:35.379Z,68.30
2019-06-08T17:31:06.148Z,66.77
2019-06-08T17:33:37.276Z,69.90
2019-06-08T17:36:09.412Z,70.27
2019-06-08T17:38:41.485Z,67.10
2019-06-08T17:41:12.498Z,68.73
2019-06-08T17:43:42.912Z,68.37
2019-06-08T17:46:13.449Z,69.87
2019-06-08T17:48:44.509Z,66.47
2019-06-08T17:51:15.118Z,68.33
2019-06-08T17:53:45.915Z,68.07
2019-06-08T17:56:17.896Z,68.63
2019-06-08T17:58:50.989Z,68.40
2019-06-08T18:01:21.636Z,64.83
2019-06-08T18:03:53.123Z,66.37
2019-06-08T18:06:24.088Z,66.40
2019-06-08T18:08:55.147Z,67.17
2019-06-08T18:11:27.539Z,66.87
2019-06-08T18:13:58.875Z,67.97
2019-06-08T18:16:29.875Z,65.37
2019-06-08T18:19:00.472Z,63.80
2019-06-08T18:21:31.285Z,64.97
2019-06-08T18:24:02.725Z,65.60
2019-06-08T18:26:34.352Z,63.50
2019-06-08T18:29:07.792Z,63.53
2019-06-08T18:31:40.243Z,65.57
2019-06-08T18:34:11.080Z,67.63
2019-06-08T18:36:42.511Z,64.90
2019-06-08T18:39:14.040Z,64.30
2019-06-08T18:41:46.000Z,63.30
2019-06-08T18:44:17.819Z,62.90
2019-06-08T18:46:50.948Z,66.47
2019-06-08T18:49:21.788Z,63.00
2019-06-08T18:51:54.086Z,65.00
2019-06-08T18:54:27.619Z,62.27
2019-06-08T18:57:05.918Z,61.73
2019-06-08T18:59:41.851Z,59.83
2019-06-08T19:02:10.109Z,62.33
2019-06-08T19:04:41.791Z,62.40
2019-06-08T19:07:13.349Z,62.03
2019-06-08T19:09:47.554Z,62.13
2019-06-08T19:12:19.551Z,62.23
2019-06-08T19:14:52.378Z,60.23
2019-06-08T19:17:22.777Z,61.33
2019-06-08T19:19:54.817Z,61.47
2019-06-08T19:22:47.709Z,65.60
2019-06-08T19:25:17.673Z,60.63
2019-06-08T19:27:53.174Z,60.17
2019-06-08T19:30:24.330Z,60.73
2019-06-08T19:32:53.242Z,59.07
2019-06-08T19:35:23.668Z,56.93
2019-06-08T19:37:54.805Z,58.60
2019-06-08T19:40:27.165Z,59.27
2019-06-08T19:43:01.302Z,58.53
2019-06-08T19:45:30.788Z,61.07
2019-06-08T19:48:01.941Z,56.80
2019-06-08T19:50:33.058Z,57.30
2019-06-08T19:53:07.230Z,57.67
2019-06-08T19:55:37.736Z,57.73
2019-06-08T19:58:09.385Z,60.33
2019-06-08T20:00:41.088Z,58.10
2019-06-08T20:03:13.008Z,57.97
2019-06-08T20:05:45.198Z,58.73
2019-06-08T20:08:17.411Z,58.90
2019-06-08T20:10:49.602Z,59.40
2019-06-08T20:13:21.015Z,58.53
2019-06-08T20:15:57.306Z,61.07
2019-06-08T20:18:24.638Z,58.20
2019-06-08T20:20:58.429Z,57.90
2019-06-08T20:23:28.877Z,58.80
2019-06-08T20:26:00.816Z,58.17
2019-06-08T20:28:31.480Z,56.67
2019-06-08T20:31:02.333Z,57.40
2019-06-08T20:33:33.576Z,58.10
2019-06-08T20:36:04.606Z,58.37
2019-06-08T20:38:41.445Z,57.20
2019-06-08T20:41:07.978Z,59.70
2019-06-08T20:43:41.239Z,57.03
2019-06-08T20:46:13.163Z,56.23
2019-06-08T20:48:44.247Z,58.27
2019-06-08T20:51:17.106Z,59.40
2019-06-08T20:53:50.935Z,56.80
2019-06-08T20:56:24.451Z,56.97
2019-06-08T20:59:29.599Z,58.57
2019-06-08T21:01:48.928Z,59.27
2019-06-08T21:04:20.883Z,57.53
2019-06-08T21:06:52.825Z,55.47
2019-06-08T21:09:23.812Z,59.33
2019-06-08T21:11:56.344Z,58.33
2019-06-08T21:14:27.413Z,58.60
2019-06-08T21:16:59.007Z,59.93
2019-06-08T21:19:30.691Z,58.67
2019-06-08T21:22:02.273Z,61.40
2019-06-08T21:24:37.005Z,55.70
2019-06-08T21:27:08.331Z,56.43
2019-06-08T21:29:49.407Z,57.87
2019-06-08T21:32:17.575Z,55.17
2019-06-08T21:34:50.838Z,55.40
2019-06-08T21:37:20.830Z,54.67
2019-06-08T21:39:55.352Z,54.43
2019-06-08T21:42:24.346Z,54.77
2019-06-08T21:44:59.418Z,56.70
2019-06-08T21:47:32.191Z,57.20
2019-06-08T21:50:03.034Z,56.57
2019-06-08T21:52:35.101Z,58.13
2019-06-08T21:55:07.387Z,55.83
2019-06-08T21:57:38.148Z,57.47
2019-06-08T22:00:34.707Z,59.10
2019-06-08T22:02:42.979Z,55.50
2019-06-08T22:05:13.961Z,55.37
2019-06-08T22:07:44.393Z,56.37
2019-06-08T22:10:17.817Z,58.63
2019-06-08T22:12:51.805Z,56.23
2019-06-08T22:15:24.507Z,53.07
2019-06-08T22:17:55.063Z,52.67
2019-06-08T22:20:27.395Z,53.63
2019-06-08T22:22:59.326Z,56.43
2019-06-08T22:25:29.322Z,56.87
2019-06-08T22:28:00.952Z,52.13
2019-06-08T22:30:39.155Z,53.53
2019-06-08T22:33:03.961Z,54.03
2019-06-08T22:35:34.423Z,54.13
2019-06-08T22:38:05.035Z,54.93
2019-06-08T22:40:37.087Z,53.87
2019-06-08T22:43:08.228Z,53.30
2019-06-08T22:45:39.727Z,54.30
2019-06-08T22:48:10.358Z,52.67
2019-06-08T22:50:42.617Z,54.73
2019-06-08T22:53:14.802Z,53.57
2019-06-08T22:55:47.716Z,52.33
2019-06-08T22:58:19.416Z,54.07
2019-06-08T23:00:53.011Z,53.57
2019-06-08T23:03:22.904Z,52.77
2019-06-08T23:05:54.869Z,53.17
2019-06-08T23:08:27.092Z,53.40
2019-06-08T23:11:03.733Z,53.27
2019-06-08T23:13:37.685Z,53.90
2019-06-08T23:16:09.480Z,55.47
2019-06-08T23:18:41.749Z,52.70
2019-06-08T23:21:13.199Z,53.97
2019-06-08T23:23:43.940Z,54.63
2019-06-08T23:26:15.021Z,54.07
2019-06-08T23:28:47.139Z,58.77
2019-06-08T23:31:24.968Z,52.77
2019-06-08T23:33:52.988Z,51.97
2019-06-08T23:36:46.736Z,53.60
2019-06-08T23:38:57.251Z,53.13
2019-06-08T23:41:28.081Z,52.60
2019-06-08T23:43:59.532Z,50.57
2019-06-08T23:46:30.023Z,52.77
2019-06-08T23:49:03.915Z,51.20
2019-06-08T23:51:38.105Z,51.00
2019-06-08T23:54:12.042Z,53.47
2019-06-08T23:56:50.200Z,51.93
2019-06-08T23:59:21.499Z,52.03
